createdAt,value
2022-12-08T00:02:32.269Z,27.00
2022-12-08T00:05:53.849Z,27.77
2022-12-08T00:09:14.781Z,23.87
2022-12-08T00:12:17.447Z,26.67
2022-12-08T00:15:19.735Z,25.52
2022-12-08T00:18:22.268Z,25.73
2022-12-08T00:21:24.579Z,26.90
2022-12-08T00:24:31.325Z,23.62
2022-12-08T00:27:33.598Z,22.90
2022-12-08T00:30:39.300Z,24.52
2022-12-08T00:33:41.553Z,24.20
2022-12-08T00:36:44.332Z,24.35
2022-12-08T00:39:46.548Z,25.25
2022-12-08T00:42:49.115Z,27.27
2022-12-08T00:45:51.407Z,30.05
2022-12-08T00:48:53.995Z,26.70
2022-12-08T00:51:56.639Z,28.23
2022-12-08T00:54:59.199Z,29.37
2022-12-08T00:58:01.585Z,30.70
2022-12-08T01:01:14.236Z,27.67
2022-12-08T01:04:18.332Z,30.60
2022-12-08T01:07:20.904Z,32.47
2022-12-08T01:10:23.153Z,35.15
2022-12-08T01:13:25.627Z,31.73
2022-12-08T01:16:30.465Z,29.25
2022-12-08T01:19:33.233Z,30.57
2022-12-08T01:22:36.170Z,31.58
2022-12-08T01:25:38.831Z,29.27
2022-12-08T01:28:42.331Z,26.70
2022-12-08T01:31:45.054Z,31.85
2022-12-08T01:34:47.322Z,26.43
2022-12-08T01:37:50.722Z,29.45
2022-12-08T01:40:52.972Z,26.95
2022-12-08T01:44:23.685Z,28.17
2022-12-08T01:47:30.567Z,30.73
2022-12-08T01:50:34.050Z,25.87
2022-12-08T01:53:36.957Z,32.72
2022-12-08T01:56:55.234Z,30.02
2022-12-08T02:00:07.092Z,33.13
2022-12-08T02:03:16.152Z,39.65
2022-12-08T02:06:19.656Z,29.60
2022-12-08T02:09:22.485Z,27.08
2022-12-08T02:12:24.894Z,26.92
2022-12-08T02:16:02.363Z,30.95
2022-12-08T02:19:32.364Z,27.35
2022-12-08T02:22:53.851Z,26.73
2022-12-08T02:26:23.895Z,28.00
2022-12-08T02:30:02.546Z,27.77
2022-12-08T02:33:26.521Z,28.33
2022-12-08T02:36:51.661Z,28.23
2022-12-08T02:39:56.929Z,39.00
2022-12-08T02:43:16.930Z,40.58
2022-12-08T02:46:24.749Z,41.13
2022-12-08T02:49:33.151Z,33.90
2022-12-08T02:52:40.701Z,34.10
2022-12-08T02:56:04.874Z,31.23
2022-12-08T02:59:32.402Z,32.70
2022-12-08T03:03:03.926Z,34.78
2022-12-08T03:06:37.027Z,32.88
2022-12-08T03:09:50.123Z,30.83
2022-12-08T03:13:15.794Z,31.57
2022-12-08T03:16:25.641Z,29.77
2022-12-08T03:19:33.840Z,33.38
2022-12-08T03:22:39.295Z,29.58
2022-12-08T03:25:49.531Z,32.67
2022-12-08T03:28:52.083Z,33.43
2022-12-08T03:32:01.236Z,35.22
2022-12-08T03:35:09.240Z,39.15
2022-12-08T03:38:15.584Z,38.33
2022-12-08T03:41:18.538Z,36.42
2022-12-08T03:44:20.742Z,36.37
2022-12-08T03:47:23.502Z,34.03
2022-12-08T03:50:26.303Z,32.53
2022-12-08T03:53:28.845Z,43.30
2022-12-08T03:56:36.971Z,40.80
2022-12-08T03:59:39.668Z,40.67
2022-12-08T04:02:42.048Z,42.80
2022-12-08T04:05:44.590Z,42.35
2022-12-08T04:08:46.973Z,40.05
2022-12-08T04:11:52.297Z,42.22
2022-12-08T04:14:54.536Z,37.97
2022-12-08T04:17:57.082Z,41.00
2022-12-08T04:20:59.304Z,39.03
2022-12-08T04:24:02.572Z,38.28
2022-12-08T04:27:04.866Z,39.28
2022-12-08T04:30:08.282Z,37.80
2022-12-08T04:33:10.887Z,37.38
2022-12-08T04:36:13.422Z,34.78
2022-12-08T04:39:15.683Z,35.00
2022-12-08T04:42:18.234Z,37.83
2022-12-08T04:45:20.514Z,36.43
2022-12-08T04:48:23.173Z,36.28
2022-12-08T04:51:27.328Z,35.08
2022-12-08T04:54:30.421Z,44.75
2022-12-08T04:57:32.769Z,43.03
2022-12-08T05:00:35.243Z,38.83
2022-12-08T05:03:37.734Z,35.08
2022-12-08T05:06:40.244Z,41.05
2022-12-08T05:09:42.604Z,39.47
2022-12-08T05:12:45.129Z,38.78
2022-12-08T05:15:47.447Z,41.63
2022-12-08T05:18:50.025Z,42.50
2022-12-08T05:21:52.261Z,45.20
2022-12-08T05:24:54.866Z,42.47
2022-12-08T05:28:17.472Z,40.03
2022-12-08T05:31:19.758Z,40.77
2022-12-08T05:34:22.147Z,36.72
2022-12-08T05:37:24.700Z,38.03
2022-12-08T05:40:27.152Z,36.85
2022-12-08T05:43:29.795Z,37.03
2022-12-08T05:46:32.235Z,46.37
2022-12-08T05:49:34.795Z,43.42
2022-12-08T05:52:37.134Z,44.78
2022-12-08T05:55:39.706Z,45.72
2022-12-08T05:58:42.414Z,50.90
2022-12-08T06:01:45.002Z,47.90
2022-12-08T06:04:47.563Z,51.40
2022-12-08T06:07:49.902Z,54.22
2022-12-08T06:10:52.519Z,52.75
2022-12-08T06:13:56.666Z,55.65
2022-12-08T06:16:59.215Z,51.00
2022-12-08T06:20:02.115Z,48.25
2022-12-08T06:23:04.894Z,50.42
2022-12-08T06:26:13.412Z,52.20
2022-12-08T06:29:15.956Z,52.47
2022-12-08T06:32:20.808Z,49.93
2022-12-08T06:35:26.998Z,47.78
2022-12-08T06:38:29.856Z,50.53
2022-12-08T06:41:32.442Z,46.10
2022-12-08T06:44:34.707Z,58.08
2022-12-08T06:47:37.408Z,54.40
2022-12-08T06:50:39.697Z,52.05
2022-12-08T06:53:43.293Z,48.13
2022-12-08T06:56:45.568Z,52.50
2022-12-08T06:59:48.138Z,43.78
2022-12-08T07:02:50.498Z,42.17
2022-12-08T07:06:03.243Z,40.00
2022-12-08T07:09:06.463Z,44.17
2022-12-08T07:12:08.988Z,48.65
2022-12-08T07:15:11.503Z,51.63
2022-12-08T07:18:14.090Z,41.37
2022-12-08T07:21:17.568Z,46.42
2022-12-08T07:24:20.173Z,40.72
2022-12-08T07:27:22.463Z,44.88
2022-12-08T07:30:25.024Z,49.05
2022-12-08T07:33:27.694Z,42.63
2022-12-08T07:36:30.310Z,49.03
2022-12-08T07:39:32.510Z,43.40
2022-12-08T07:42:35.437Z,48.33
2022-12-08T07:45:37.675Z,46.15
2022-12-08T07:48:40.740Z,39.27
2022-12-08T07:51:42.954Z,42.05
2022-12-08T07:54:45.586Z,42.92
2022-12-08T07:57:47.838Z,44.90
2022-12-08T08:00:50.489Z,47.35
2022-12-08T08:03:54.850Z,42.57
2022-12-08T08:06:57.337Z,50.17
2022-12-08T08:10:00.242Z,46.85
2022-12-08T08:13:02.792Z,48.03
2022-12-08T08:16:10.297Z,43.03
2022-12-08T08:19:12.656Z,47.23
2022-12-08T08:22:15.285Z,44.60
2022-12-08T08:25:18.959Z,45.28
2022-12-08T08:28:21.524Z,47.90
2022-12-08T08:31:27.268Z,48.87
2022-12-08T08:34:29.983Z,43.77
2022-12-08T08:37:32.359Z,44.45
2022-12-08T08:40:34.942Z,44.92
2022-12-08T08:43:38.678Z,38.35
2022-12-08T08:46:41.823Z,46.97
2022-12-08T08:49:44.123Z,48.77
2022-12-08T08:52:46.790Z,40.92
2022-12-08T08:55:50.158Z,44.58
2022-12-08T08:58:53.503Z,40.97
2022-12-08T09:01:56.278Z,43.38
2022-12-08T09:04:59.737Z,43.00
2022-12-08T09:08:02.229Z,43.53
2022-12-08T09:11:05.028Z,43.72
2022-12-08T09:14:07.472Z,45.55
2022-12-08T09:17:10.082Z,49.65
2022-12-08T09:20:12.611Z,50.33
2022-12-08T09:23:15.176Z,49.05
2022-12-08T09:26:17.624Z,43.08
2022-12-08T09:29:20.278Z,44.13
2022-12-08T09:32:22.656Z,42.35
2022-12-08T09:35:25.252Z,43.80
2022-12-08T09:38:27.560Z,42.58
2022-12-08T09:41:58.371Z,45.88
2022-12-08T09:45:12.107Z,43.75
2022-12-08T09:48:37.217Z,54.45
2022-12-08T09:51:42.395Z,49.03
2022-12-08T09:54:45.321Z,46.05
2022-12-08T09:57:57.914Z,42.55
2022-12-08T10:01:00.522Z,44.65
2022-12-08T10:04:03.242Z,50.60
2022-12-08T10:07:30.897Z,46.33
2022-12-08T10:10:57.965Z,41.00
2022-12-08T10:14:33.979Z,44.72
2022-12-08T10:17:42.606Z,35.80
2022-12-08T10:20:48.145Z,45.60
2022-12-08T10:24:02.071Z,42.63
2022-12-08T10:27:08.203Z,41.55
2022-12-08T10:30:16.584Z,43.97
2022-12-08T10:33:22.060Z,49.50
2022-12-08T10:36:54.381Z,40.42
2022-12-08T10:40:02.869Z,39.97
2022-12-08T10:43:07.045Z,41.28
2022-12-08T10:46:27.464Z,52.70
2022-12-08T10:49:32.438Z,44.67
2022-12-08T10:52:41.117Z,43.67
2022-12-08T10:55:46.441Z,42.60
2022-12-08T10:58:49.237Z,41.25
2022-12-08T11:01:54.583Z,39.38
2022-12-08T11:05:00.227Z,42.22
2022-12-08T11:08:04.893Z,39.50
2022-12-08T11:11:07.614Z,41.17
2022-12-08T11:14:18.382Z,40.35
2022-12-08T11:17:25.201Z,43.33
2022-12-08T11:20:28.313Z,41.75
2022-12-08T11:23:31.160Z,35.80
2022-12-08T11:26:37.011Z,27.80
2022-12-08T11:29:46.382Z,25.85
2022-12-08T11:32:52.999Z,25.52
2022-12-08T11:36:09.066Z,23.40
2022-12-08T11:39:13.208Z,26.43
2022-12-08T11:42:22.044Z,33.50
2022-12-08T11:45:30.088Z,41.42
2022-12-08T11:48:37.010Z,27.15
2022-12-08T11:51:46.986Z,26.00
2022-12-08T11:54:58.325Z,24.80
2022-12-08T11:58:18.820Z,23.58
2022-12-08T12:01:26.149Z,32.00
2022-12-08T12:04:37.128Z,33.13
2022-12-08T12:07:45.478Z,30.25
2022-12-08T12:11:10.305Z,25.80
2022-12-08T12:14:31.835Z,25.70
2022-12-08T12:18:05.141Z,21.52
2022-12-08T12:21:16.228Z,22.27
2022-12-08T12:24:50.310Z,21.37
2022-12-08T12:27:59.399Z,25.60
2022-12-08T12:31:08.537Z,25.73
2022-12-08T12:34:28.254Z,26.17
2022-12-08T12:37:45.833Z,24.73
2022-12-08T12:40:48.681Z,22.35
2022-12-08T12:44:08.293Z,24.63
2022-12-08T12:47:13.179Z,21.27
2022-12-08T12:50:45.905Z,20.37
2022-12-08T12:53:50.093Z,20.73
2022-12-08T12:56:57.124Z,19.83
2022-12-08T12:59:59.331Z,20.33
2022-12-08T13:03:02.022Z,24.63
2022-12-08T13:06:06.207Z,25.40
2022-12-08T13:09:31.760Z,31.70
2022-12-08T13:12:34.110Z,32.67
2022-12-08T13:15:48.521Z,25.60
2022-12-08T13:18:56.207Z,30.65
2022-12-08T13:22:00.226Z,24.20
2022-12-08T13:25:39.759Z,21.45
2022-12-08T13:29:01.412Z,21.50
2022-12-08T13:32:07.207Z,33.80
2022-12-08T13:35:11.980Z,38.35
2022-12-08T13:38:19.380Z,34.10
2022-12-08T13:41:34.645Z,42.38
2022-12-08T13:45:58.909Z,38.92
2022-12-08T13:59:19.450Z,37.42
2022-12-08T14:02:49.480Z,30.10
2022-12-08T14:09:21.166Z,30.90
2022-12-08T14:12:27.123Z,31.20
2022-12-08T14:15:37.232Z,25.35
2022-12-08T14:18:41.367Z,23.23
2022-12-08T14:21:51.212Z,26.70
2022-12-08T14:24:54.804Z,21.98
2022-12-08T14:28:01.254Z,28.90
2022-12-08T14:31:04.688Z,21.52
2022-12-08T14:34:07.146Z,26.73
2022-12-08T14:37:13.017Z,28.87
2022-12-08T14:40:23.032Z,32.42
2022-12-08T14:43:31.106Z,34.83
2022-12-08T14:46:33.942Z,34.92
2022-12-08T14:49:39.127Z,32.58
2022-12-08T14:52:44.420Z,35.63
2022-12-08T14:55:48.930Z,36.17
2022-12-08T14:59:05.830Z,34.85
2022-12-08T15:02:24.306Z,30.20
2022-12-08T15:05:30.887Z,33.10
2022-12-08T15:08:35.183Z,35.63
2022-12-08T15:11:37.456Z,32.70
2022-12-08T15:14:57.814Z,30.17
2022-12-08T15:18:20.871Z,33.67
2022-12-08T15:21:30.808Z,32.08
2022-12-08T15:24:35.585Z,30.87
2022-12-08T15:27:49.623Z,33.08
2022-12-08T15:30:53.765Z,35.17
2022-12-08T15:33:56.408Z,31.70
2022-12-08T15:36:58.727Z,32.15
2022-12-08T15:40:01.232Z,29.30
2022-12-08T15:43:03.636Z,31.90
2022-12-08T15:46:06.595Z,29.12
2022-12-08T15:49:17.765Z,32.78
2022-12-08T15:52:23.315Z,28.60
2022-12-08T15:55:25.600Z,32.60
2022-12-08T16:01:52.161Z,31.00
2022-12-08T16:12:09.554Z,33.37
2022-12-08T16:18:39.489Z,30.62
2022-12-08T16:25:21.635Z,30.55
2022-12-08T16:28:52.966Z,28.10
2022-12-08T16:31:47.569Z,33.90
2022-12-08T16:34:50.649Z,29.15
2022-12-08T16:37:55.653Z,30.73
2022-12-08T16:41:16.374Z,27.37
2022-12-08T16:44:18.898Z,30.57
2022-12-08T16:47:21.194Z,29.67
2022-12-08T16:50:44.864Z,30.77
2022-12-08T16:53:47.139Z,25.88
2022-12-08T16:56:49.715Z,29.25
2022-12-08T16:59:51.962Z,29.73
2022-12-08T17:02:55.373Z,31.02
2022-12-08T17:05:57.640Z,33.08
2022-12-08T17:09:00.277Z,35.15
2022-12-08T17:12:04.189Z,34.10
2022-12-08T17:15:09.249Z,32.27
2022-12-08T17:18:12.064Z,35.50
2022-12-08T17:21:17.021Z,31.80
2022-12-08T17:24:22.215Z,36.92
2022-12-08T17:27:25.425Z,32.95
2022-12-08T17:30:27.719Z,33.33
2022-12-08T17:33:30.233Z,34.72
2022-12-08T17:36:32.610Z,28.45
2022-12-08T17:39:35.269Z,28.02
2022-12-08T17:42:38.684Z,23.38
2022-12-08T17:45:46.882Z,25.57
2022-12-08T17:48:49.446Z,25.00
2022-12-08T17:51:54.554Z,24.87
2022-12-08T17:54:56.835Z,27.83
2022-12-08T17:57:59.398Z,25.45
2022-12-08T18:01:08.110Z,23.80
2022-12-08T18:04:11.870Z,28.27
2022-12-08T18:07:14.152Z,23.00
2022-12-08T18:10:18.379Z,25.45
2022-12-08T18:13:20.690Z,24.58
2022-12-08T18:16:25.844Z,33.73
2022-12-08T18:19:28.202Z,29.60
2022-12-08T18:22:30.710Z,32.00
2022-12-08T18:25:32.999Z,39.97
2022-12-08T18:28:36.633Z,37.28
2022-12-08T18:31:38.953Z,33.60
2022-12-08T18:34:41.796Z,33.63
2022-12-08T18:37:44.271Z,39.05
2022-12-08T18:40:46.829Z,34.28
2022-12-08T18:43:49.039Z,33.47
2022-12-08T18:46:51.576Z,39.70
2022-12-08T18:49:55.084Z,32.13
2022-12-08T18:52:57.752Z,34.90
2022-12-08T18:56:00.057Z,29.58
2022-12-08T18:59:08.535Z,30.70
2022-12-08T19:02:12.425Z,31.17
2022-12-08T19:05:15.282Z,31.50
2022-12-08T19:08:18.279Z,26.12
2022-12-08T19:11:26.739Z,26.70
2022-12-08T19:14:30.465Z,25.17
2022-12-08T19:17:33.186Z,21.80
2022-12-08T19:20:35.387Z,26.73
2022-12-08T19:23:38.930Z,25.10
2022-12-08T19:26:41.462Z,22.90
2022-12-08T19:29:44.051Z,24.02
2022-12-08T19:32:46.481Z,28.10
2022-12-08T19:35:52.733Z,25.75
2022-12-08T19:39:15.664Z,27.73
2022-12-08T19:42:39.888Z,27.52
2022-12-08T19:45:42.254Z,29.02
2022-12-08T19:48:45.012Z,26.87
2022-12-08T19:51:47.268Z,30.17
2022-12-08T19:54:49.874Z,26.90
2022-12-08T19:57:52.738Z,27.13
2022-12-08T20:00:55.559Z,25.52
2022-12-08T20:03:58.133Z,25.90
2022-12-08T20:07:00.624Z,27.55
2022-12-08T20:10:09.849Z,25.85
2022-12-08T20:13:30.989Z,24.37
2022-12-08T20:16:34.107Z,28.25
2022-12-08T20:19:36.603Z,29.70
2022-12-08T20:22:39.301Z,33.72
2022-12-08T20:25:44.059Z,28.30
2022-12-08T20:28:46.946Z,29.05
2022-12-08T20:31:49.378Z,28.15
2022-12-08T20:34:52.056Z,27.33
2022-12-08T20:37:54.384Z,30.95
2022-12-08T20:40:58.184Z,29.02
2022-12-08T20:44:00.458Z,26.52
2022-12-08T20:47:03.051Z,27.92
2022-12-08T20:50:07.037Z,30.87
2022-12-08T20:53:09.861Z,28.42
2022-12-08T20:56:17.473Z,27.52
2022-12-08T20:59:20.526Z,31.27
2022-12-08T21:02:22.958Z,31.62
2022-12-08T21:05:25.894Z,30.23
2022-12-08T21:08:28.522Z,30.55
2022-12-08T21:11:31.473Z,31.60
2022-12-08T21:14:34.008Z,26.30
2022-12-08T21:17:36.732Z,31.80
2022-12-08T21:20:39.134Z,29.00
2022-12-08T21:23:42.850Z,31.27
2022-12-08T21:26:45.298Z,30.67
2022-12-08T21:29:48.022Z,32.90
2022-12-08T21:32:50.611Z,34.33
2022-12-08T21:36:02.198Z,30.70
2022-12-08T21:39:11.268Z,35.33
2022-12-08T21:42:34.462Z,32.10
2022-12-08T21:45:37.184Z,33.20
2022-12-08T21:48:39.811Z,32.53
2022-12-08T21:51:42.810Z,31.67
2022-12-08T21:54:45.542Z,32.90
2022-12-08T21:57:47.887Z,32.47
2022-12-08T22:00:50.565Z,33.72
2022-12-08T22:03:53.748Z,35.45
2022-12-08T22:06:56.392Z,30.53
2022-12-08T22:09:59.345Z,32.45
2022-12-08T22:13:01.782Z,34.85
2022-12-08T22:16:07.594Z,33.28
2022-12-08T22:19:11.043Z,35.60
2022-12-08T22:22:13.716Z,33.80
2022-12-08T22:25:16.157Z,35.05
2022-12-08T22:28:18.697Z,34.55
2022-12-08T22:31:21.231Z,35.05
2022-12-08T22:34:23.927Z,33.63
2022-12-08T22:37:26.510Z,34.17
2022-12-08T22:40:29.468Z,34.58
2022-12-08T22:43:32.658Z,36.63
2022-12-08T22:46:35.886Z,35.38
2022-12-08T22:49:38.426Z,41.25
2022-12-08T22:52:41.098Z,35.40
2022-12-08T22:55:44.330Z,37.65
2022-12-08T22:58:47.424Z,34.38
2022-12-08T23:01:49.933Z,36.03
2022-12-08T23:04:56.356Z,36.65
2022-12-08T23:07:59.109Z,35.63
2022-12-08T23:11:01.731Z,37.50
2022-12-08T23:14:04.069Z,38.80
2022-12-08T23:17:07.005Z,36.42
2022-12-08T23:20:10.620Z,40.45
2022-12-08T23:23:13.664Z,34.20
2022-12-08T23:26:22.946Z,39.35
2022-12-08T23:29:25.727Z,39.80
2022-12-08T23:32:28.280Z,37.95
2022-12-08T23:35:31.317Z,37.97
2022-12-08T23:38:34.024Z,39.73
2022-12-08T23:41:37.065Z,35.97
2022-12-08T23:44:39.588Z,38.35
2022-12-08T23:47:42.257Z,40.83
2022-12-08T23:50:44.769Z,38.25
2022-12-08T23:53:47.457Z,38.93
2022-12-08T23:56:49.750Z,40.17
2022-12-08T23:59:52.463Z,41.78
